Time;durP1;ratioP1;P1;durP2;ratioP2;P2;SDS_P1;SDS_P2;PMS_P1;PMS_P2;Temp;Humidity;BMP_temperature;BMP_pressure;BME280_temperature;BME280_humidity;BME280_pressure;Samples;Min_cycle;Max_cycle;Signal;HPM_P1;HPM_P2
2022/10/15 00:00:10;;;;;;;30.10;12.83;;;;;;;8.23;62.18;101305.85;124637;1099;104175;-75
2022/10/15 00:03:01;;;;;;;26.77;12.87;;;;;;;8.27;61.81;101306.92;124564;1098;104018;-74
2022/10/15 00:05:32;;;;;;;31.17;13.53;;;;;;;8.28;62.32;101301.78;124697;1099;102893;-74
2022/10/15 00:08:03;;;;;;;32.27;13.67;;;;;;;8.30;62.27;101293.13;124631;1099;104271;-75
2022/10/15 00:10:36;;;;;;;27.43;13.07;;;;;;;8.33;62.45;101296.81;124684;1099;104711;-75
2022/10/15 00:13:07;;;;;;;31.30;13.53;;;;;;;8.37;62.46;101297.91;124563;1099;104267;-74
2022/10/15 00:15:39;;;;;;;27.60;12.97;;;;;;;8.37;61.98;101297.91;124675;1099;104185;-75
2022/10/15 00:18:10;;;;;;;29.40;13.37;;;;;;;8.36;62.49;101296.99;124645;1099;104248;-75
2022/10/15 00:20:44;;;;;;;30.37;13.20;;;;;;;8.36;62.64;101296.99;124708;1099;104179;-74
2022/10/15 00:23:15;;;;;;;29.18;12.37;;;;;;;8.41;62.34;101302.48;124677;1099;104656;-75
2022/10/15 00:25:46;;;;;;;25.70;13.00;;;;;;;8.45;62.87;101301.89;124629;1099;104179;-75
2022/10/15 00:28:17;;;;;;;28.33;13.57;;;;;;;8.47;62.81;101302.88;124604;1099;102940;-75
2022/10/15 00:30:48;;;;;;;27.40;13.43;;;;;;;8.47;62.22;101300.26;124623;1099;104224;-75
2022/10/15 00:33:21;;;;;;;27.03;13.10;;;;;;;8.50;62.23;101295.20;124719;1099;104217;-74
2022/10/15 00:36:02;;;;;;;30.17;14.53;;;;;;;8.52;62.95;101293.56;124665;1099;102350;-74
2022/10/15 00:38:34;;;;;;;29.83;14.63;;;;;;;8.54;62.23;101294.58;124643;1099;104248;-74
2022/10/15 00:41:07;;;;;;;31.60;14.95;;;;;;;8.52;62.81;101297.91;124657;1099;104232;-75
2022/10/15 00:43:41;;;;;;;38.50;17.40;;;;;;;8.47;62.85;101295.02;124193;1099;104258;-74
2022/10/15 00:46:22;;;;;;;32.53;17.27;;;;;;;8.42;62.58;101291.22;124277;1099;102815;-75
2022/10/15 00:48:57;;;;;;;35.13;17.60;;;;;;;8.41;63.01;101289.41;124197;1099;102913;-74
2022/10/15 00:51:33;;;;;;;30.20;16.27;;;;;;;8.43;63.03;101296.58;124589;1099;104411;-75
2022/10/15 00:54:05;;;;;;;29.00;16.00;;;;;;;8.36;62.82;101296.10;124143;1099;102997;-74
2022/10/15 00:56:40;;;;;;;31.10;16.43;;;;;;;8.35;63.04;101292.59;124463;1099;102899;-74
2022/10/15 00:59:12;;;;;;;30.73;15.50;;;;;;;8.36;63.45;101293.48;124621;1099;104179;-75
2022/10/15 01:01:44;;;;;;;31.27;16.80;;;;;;;8.38;63.53;101294.47;124626;1099;103142;-74
2022/10/15 01:04:17;;;;;;;32.77;16.73;;;;;;;8.39;63.38;101294.55;124152;1099;104207;-74
2022/10/15 01:06:48;;;;;;;32.40;16.77;;;;;;;8.41;63.26;101295.56;124561;1099;104178;-75
2022/10/15 01:09:19;;;;;;;32.53;17.23;;;;;;;8.43;63.68;101299.19;124621;1099;102924;-74
2022/10/15 01:11:53;;;;;;;29.73;15.57;;;;;;;8.45;63.77;101291.44;124622;1099;104255;-75
2022/10/15 01:14:36;;;;;;;31.90;14.93;;;;;;;8.49;63.84;101298.62;124571;1099;105151;-75
2022/10/15 01:17:16;;;;;;;32.48;14.87;;;;;;;8.53;63.30;101297.99;124657;1099;104172;-75
2022/10/15 01:20:10;;;;;;;29.87;14.87;;;;;;;8.55;63.23;101296.35;124584;1099;102867;-74
2022/10/15 01:22:53;;;;;;;26.87;13.23;;;;;;;8.54;63.79;101297.19;124554;1099;104327;-74
2022/10/15 01:25:39;;;;;;;27.43;13.20;;;;;;;8.43;63.45;101298.23;124559;1099;104245;-75
2022/10/15 01:28:24;;;;;;;26.67;12.90;;;;;;;8.31;63.65;101293.22;124601;1099;119280;-74
2022/10/15 01:30:59;;;;;;;27.33;14.00;;;;;;;8.25;63.48;101290.25;124562;1099;103036;-75
2022/10/15 01:33:39;;;;;;;28.37;14.23;;;;;;;8.25;63.55;101292.87;124536;1099;104326;-75
2022/10/15 01:36:16;;;;;;;28.50;13.67;;;;;;;8.28;63.62;101299.16;124693;1099;101839;-75
2022/10/15 01:38:57;;;;;;;29.37;13.97;;;;;;;8.31;63.58;101293.22;124584;1099;102838;-75
2022/10/15 01:41:37;;;;;;;27.27;13.57;;;;;;;8.35;63.97;101289.98;124542;1099;102848;-75
2022/10/15 01:44:13;;;;;;;28.23;13.70;;;;;;;8.40;63.57;101295.48;124581;1099;104334;-74
2022/10/15 01:46:57;;;;;;;29.90;15.10;;;;;;;8.40;64.25;101296.37;124499;1099;102576;-75
2022/10/15 01:49:32;;;;;;;26.00;14.03;;;;;;;8.35;63.63;101300.44;124209;1099;104301;-74
2022/10/15 01:52:10;;;;;;;30.73;14.67;;;;;;;8.31;63.71;101308.02;124237;1099;104271;-74
2022/10/15 01:54:42;;;;;;;31.07;15.13;;;;;;;8.24;63.83;101306.74;124577;1099;104351;-75
2022/10/15 01:57:15;;;;;;;28.07;13.97;;;;;;;8.17;64.39;101300.27;124363;1099;104269;-75
2022/10/15 01:59:46;;;;;;;32.23;15.83;;;;;;;8.12;63.95;101304.34;124580;1099;104246;-74
2022/10/15 02:02:19;;;;;;;31.10;14.87;;;;;;;8.15;64.16;101298.36;124635;1099;104274;-74
2022/10/15 02:04:50;;;;;;;32.23;14.90;;;;;;;8.20;64.21;101300.45;124629;1099;104226;-75
2022/10/15 02:07:37;;;;;;;29.17;14.40;;;;;;;8.24;64.31;101304.13;124571;1099;104270;-74
2022/10/15 02:10:18;;;;;;;27.37;15.03;;;;;;;8.23;64.46;101303.23;124517;1099;102931;-75
2022/10/15 02:13:01;;;;;;;30.80;15.07;;;;;;;8.24;64.13;101301.52;124592;1099;104204;-75
2022/10/15 02:15:45;;;;;;;32.00;15.80;;;;;;;8.22;64.76;101304.04;124657;1099;104225;-74
2022/10/15 02:18:21;;;;;;;29.27;14.90;;;;;;;8.26;64.27;101305.14;124565;1099;102579;-75
2022/10/15 02:21:01;;;;;;;31.33;15.00;;;;;;;8.28;64.94;101304.39;124640;1098;104284;-74
2022/10/15 02:23:46;;;;;;;30.90;15.33;;;;;;;8.28;64.97;101308.73;124581;1099;104239;-74
2022/10/15 02:26:19;;;;;;;32.07;14.97;;;;;;;8.25;64.34;101312.06;124656;1099;104205;-74
2022/10/15 02:28:54;;;;;;;27.23;14.50;;;;;;;8.18;64.50;101312.53;125590;1098;104295;-75
2022/10/15 02:31:29;;;;;;;30.00;14.70;;;;;;;8.12;64.99;101306.03;124374;1099;104702;-75
2022/10/15 02:34:05;;;;;;;27.97;14.37;;;;;;;8.07;64.47;101301.45;124572;1099;104178;-74
2022/10/15 02:36:39;;;;;;;28.87;14.10;;;;;;;8.07;64.92;101300.53;124266;1099;104974;-75
2022/10/15 02:39:12;;;;;;;27.17;14.03;;;;;;;8.06;64.95;101297.02;124334;1099;104233;-75
2022/10/15 02:41:46;;;;;;;29.00;14.27;;;;;;;8.08;64.83;101307.57;124677;1098;104252;-75
2022/10/15 02:44:17;;;;;;;27.97;14.30;;;;;;;8.10;64.85;101300.70;124570;1099;102908;-75
2022/10/15 02:46:48;;;;;;;29.33;14.17;;;;;;;8.12;65.08;101300.80;124648;1098;104370;-74
2022/10/15 02:49:20;;;;;;;30.67;14.77;;;;;;;8.09;65.18;101288.47;124574;1099;104242;-74
2022/10/15 02:51:52;;;;;;;29.70;14.97;;;;;;;8.12;65.35;101290.34;124592;1099;103968;-75
2022/10/15 02:54:23;;;;;;;27.50;14.67;;;;;;;8.10;65.11;101298.09;124592;1099;104182;-75
2022/10/15 02:56:55;;;;;;;30.27;15.53;;;;;;;8.07;65.50;101301.45;124446;1099;104179;-74
2022/10/15 02:59:26;;;;;;;29.30;15.33;;;;;;;8.05;65.24;101308.28;124604;1099;103369;-74
2022/10/15 03:01:58;;;;;;;28.27;14.47;;;;;;;8.01;64.96;101298.48;124209;1099;104185;-74
2022/10/15 03:04:30;;;;;;;34.10;15.17;;;;;;;8.00;65.20;101301.00;124620;1099;104344;-74
2022/10/15 03:07:02;;;;;;;29.33;15.37;;;;;;;7.97;65.48;101295.59;124317;1099;104297;-74
2022/10/15 03:09:34;;;;;;;30.07;14.73;;;;;;;7.95;65.28;101297.19;124609;1099;104166;-75
2022/10/15 03:12:07;;;;;;;29.83;15.47;;;;;;;7.91;65.78;101291.78;124204;1099;103778;-74
2022/10/15 03:14:38;;;;;;;29.80;14.77;;;;;;;7.88;65.74;101296.86;124546;1099;104242;-75
2022/10/15 03:17:09;;;;;;;35.07;16.33;;;;;;;7.84;65.30;101300.09;124240;1099;104242;-75
2022/10/15 03:19:41;;;;;;;28.00;13.97;;;;;;;7.80;65.64;101297.20;124653;1099;104270;-74
2022/10/15 03:22:12;;;;;;;30.27;13.90;;;;;;;7.71;65.45;101292.32;124259;1099;104399;-73
2022/10/15 03:24:48;;;;;;;28.73;13.87;;;;;;;7.66;65.79;101292.04;124217;1099;103052;-75
2022/10/15 03:27:23;;;;;;;27.17;13.57;;;;;;;7.63;65.82;101290.97;124610;1099;104166;-74
2022/10/15 03:29:55;;;;;;;31.53;14.40;;;;;;;7.58;65.78;101287.19;124564;1098;102973;-75
2022/10/15 03:32:27;;;;;;;31.37;13.17;;;;;;;7.54;65.75;101287.00;124191;1099;104174;-74
2022/10/15 03:34:58;;;;;;;30.20;13.80;;;;;;;7.51;65.69;101289.42;124315;1099;104258;-75
2022/10/15 03:37:30;;;;;;;27.40;13.60;;;;;;;7.48;65.57;101289.23;124231;1099;104239;-75
2022/10/15 03:40:01;;;;;;;29.47;13.33;;;;;;;7.46;65.89;101292.55;124277;1099;104319;-74
2022/10/15 03:42:32;;;;;;;30.07;14.30;;;;;;;7.45;65.89;101286.44;124617;1099;104169;-75
2022/10/15 03:45:04;;;;;;;30.27;14.73;;;;;;;7.41;65.87;101283.55;124549;1099;104231;-74
2022/10/15 03:47:36;;;;;;;28.03;13.70;;;;;;;7.38;65.73;101289.47;124574;1099;104268;-73
2022/10/15 03:50:08;;;;;;;27.30;13.83;;;;;;;7.36;66.06;101288.48;124567;1099;104162;-74
2022/10/15 03:52:40;;;;;;;29.47;14.63;;;;;;;7.30;66.12;101277.67;124178;1099;102937;-75
2022/10/15 03:55:15;;;;;;;30.73;14.33;;;;;;;7.26;66.11;101289.64;124194;1099;104194;-75
2022/10/15 03:57:46;;;;;;;29.63;14.70;;;;;;;7.26;66.19;101287.03;124186;1099;104288;-74
2022/10/15 04:00:19;;;;;;;30.50;14.67;;;;;;;7.19;66.16;101285.73;124600;1099;104162;-74
2022/10/15 04:02:50;;;;;;;;;;;;;;;7.13;66.37;101285.34;124478;1099;104188;-75
2022/10/15 04:05:27;;;;;;;27.47;13.83;;;;;;;7.11;66.32;101291.30;124705;1099;102347;-75
2022/10/15 04:08:03;;;;;;;28.40;13.63;;;;;;;7.09;66.26;101287.67;124617;1099;104265;-75
2022/10/15 04:10:36;;;;;;;28.77;14.07;;;;;;;7.08;66.42;101294.61;124632;1098;104206;-75
2022/10/15 04:13:07;;;;;;;29.83;14.03;;;;;;;7.04;66.25;101292.60;124368;1099;104159;-75
2022/10/15 04:15:41;;;;;;;28.60;13.50;;;;;;;7.01;66.45;101289.80;124155;1099;104159;-74
2022/10/15 04:18:15;;;;;;;30.17;13.83;;;;;;;6.93;66.40;101289.31;124206;1099;104262;-74
2022/10/15 04:20:46;;;;;;;27.80;13.77;;;;;;;6.90;66.50;101296.06;124238;1099;104246;-75
2022/10/15 04:23:19;;;;;;;31.03;13.97;;;;;;;6.89;66.49;101295.17;124630;1099;104220;-75
2022/10/15 04:26:10;;;;;;;31.33;14.07;;;;;;;6.90;66.63;101289.12;124571;1099;104248;-74
2022/10/15 04:28:41;;;;;;;31.33;13.83;;;;;;;6.89;66.44;101284.73;124552;1098;102844;-74
2022/10/15 04:31:13;;;;;;;28.50;14.20;;;;;;;6.85;66.56;101287.94;124611;1099;104249;-74
2022/10/15 04:33:44;;;;;;;28.67;13.60;;;;;;;6.85;66.72;101295.77;124195;1099;104211;-74
2022/10/15 04:36:15;;;;;;;30.43;13.80;;;;;;;6.83;66.45;101295.67;124622;1099;101931;-74
2022/10/15 04:38:57;;;;;;;31.13;12.90;;;;;;;6.83;66.86;101289.56;124645;1099;104277;-75
2022/10/15 04:41:43;;;;;;;32.60;13.97;;;;;;;6.85;66.94;101293.16;124542;1099;102308;-74
2022/10/15 04:44:21;;;;;;;30.47;15.03;;;;;;;6.86;66.91;101294.05;124580;1099;104169;-75
2022/10/15 04:46:56;;;;;;;30.83;14.93;;;;;;;6.82;67.10;101288.67;124643;1099;104217;-75
2022/10/15 04:49:51;;;;;;;31.30;15.23;;;;;;;6.78;66.89;101291.88;124395;1099;104242;-75
2022/10/15 04:52:51;;;;;;;32.60;15.83;;;;;;;6.75;67.11;101290.79;124596;1099;104246;-74
2022/10/15 04:55:22;;;;;;;31.53;15.60;;;;;;;6.79;67.28;101290.16;124614;1099;102087;-74
2022/10/15 04:57:55;;;;;;;28.77;14.73;;;;;;;6.83;67.21;101294.78;124199;1099;104405;-74
2022/10/15 05:00:32;;;;;;;28.67;13.90;;;;;;;6.84;67.25;101294.87;124623;1099;102187;-74
2022/10/15 05:03:15;;;;;;;28.83;14.20;;;;;;;6.87;67.28;101290.64;124593;1099;112104;-75
2022/10/15 05:05:52;;;;;;;32.27;15.50;;;;;;;6.90;67.32;101293.45;124644;1099;104242;-75
2022/10/15 05:08:23;;;;;;;31.27;16.10;;;;;;;6.92;67.33;101287.54;124664;1099;104172;-74
2022/10/15 05:11:17;;;;;;;27.75;15.05;;;;;;;6.94;67.76;101291.13;124531;1099;102982;-74
2022/10/15 05:13:49;;;;;;;29.10;15.75;;;;;;;6.94;67.54;101292.85;124616;1099;104191;-75
2022/10/15 05:16:22;;;;;;;28.73;14.60;;;;;;;6.88;67.80;101282.03;124624;1099;104226;-75
2022/10/15 05:18:55;;;;;;;35.63;15.72;;;;;;;6.96;67.65;101294.73;124579;1099;104166;-75
2022/10/15 05:21:27;;;;;;;28.93;15.00;;;;;;;6.94;67.90;101295.46;124677;1099;104236;-75
2022/10/15 05:24:01;;;;;;;35.38;16.05;;;;;;;6.95;67.79;101305.99;124427;1098;104313;-74
2022/10/15 05:27:08;;;;;;;32.07;16.00;;;;;;;6.94;67.92;101303.29;124135;1102;104319;-74
2022/10/15 05:29:39;;;;;;;36.20;16.87;;;;;;;6.92;67.54;101304.87;124530;1099;104272;-75
2022/10/15 05:32:10;;;;;;;33.80;15.83;;;;;;;6.95;67.98;101305.99;124636;1099;103150;-74
2022/10/15 05:34:43;;;;;;;33.97;16.00;;;;;;;6.97;67.77;101306.09;124166;1099;104203;-74
2022/10/15 05:37:18;;;;;;;34.87;17.27;;;;;;;6.96;67.84;101315.61;124574;1098;104245;-75
2022/10/15 05:39:49;;;;;;;35.70;16.30;;;;;;;6.98;68.01;101315.70;124405;1099;104328;-74
2022/10/15 05:42:23;;;;;;;34.83;16.33;;;;;;;7.01;67.89;101315.89;124556;1099;104360;-75
2022/10/15 05:44:57;;;;;;;33.37;16.30;;;;;;;7.04;68.02;101312.59;124550;1099;102416;-75
2022/10/15 05:47:28;;;;;;;33.70;15.83;;;;;;;7.10;68.09;101331.24;125181;1099;104159;-75
2022/10/15 05:50:15;;;;;;;31.90;15.77;;;;;;;7.11;68.10;101322.63;124410;1099;102830;-74
2022/10/15 05:52:49;;;;;;;31.75;15.65;;;;;;;7.13;68.22;101327.11;124603;1099;104223;-74
2022/10/15 05:55:59;;;;;;;28.80;15.77;;;;;;;7.16;68.36;101322.08;124443;1099;104166;-75
2022/10/15 05:58:36;;;;;;;27.23;15.23;;;;;;;7.20;68.39;101321.48;124590;1099;104169;-74
2022/10/15 06:01:09;;;;;;;34.33;16.40;;;;;;;7.23;68.54;101323.39;124568;1099;104185;-74
2022/10/15 06:03:43;;;;;;;32.60;14.53;;;;;;;7.25;68.43;101323.48;124544;1099;103026;-75
2022/10/15 06:06:18;;;;;;;27.23;14.07;;;;;;;7.29;68.63;101325.45;124590;1099;104268;-74
2022/10/15 06:08:52;;;;;;;29.10;14.30;;;;;;;7.31;68.41;101323.87;124605;1099;102841;-75
2022/10/15 06:11:23;;;;;;;27.65;12.63;;;;;;;7.32;68.57;101329.19;124152;1099;104037;-74
2022/10/15 06:13:54;;;;;;;24.47;12.03;;;;;;;7.38;68.51;101333.86;124613;1099;104433;-75
2022/10/15 06:16:28;;;;;;;26.23;11.40;;;;;;;7.42;68.38;101329.72;124114;1102;104189;-75
2022/10/15 06:18:59;;;;;;;24.77;12.37;;;;;;;7.48;68.47;101331.02;124544;1099;102866;-75
2022/10/15 06:21:31;;;;;;;23.43;11.63;;;;;;;7.58;68.64;101331.59;124163;1099;104169;-75
2022/10/15 06:24:02;;;;;;;25.20;11.67;;;;;;;7.64;68.27;101337.19;124586;1099;104229;-75
2022/10/15 06:26:33;;;;;;;24.40;11.40;;;;;;;7.71;68.26;101340.27;124591;1099;102316;-75
2022/10/15 06:29:04;;;;;;;24.97;11.57;;;;;;;7.81;68.16;101341.72;124637;1099;104089;-75
2022/10/15 06:31:35;;;;;;;21.33;11.23;;;;;;;7.90;68.28;101334.43;124616;1099;104264;-74
2022/10/15 06:34:06;;;;;;;27.07;11.97;;;;;;;8.01;68.08;101337.69;124578;1098;102309;-74
2022/10/15 06:36:37;;;;;;;27.47;13.73;;;;;;;8.14;68.09;101338.41;124697;1099;102847;-74
2022/10/15 06:39:08;;;;;;;27.83;13.70;;;;;;;8.26;68.75;101336.52;124628;1098;104351;-74
2022/10/15 06:41:39;;;;;;;28.83;13.80;;;;;;;8.40;68.79;101338.21;124593;1098;104073;-74
2022/10/15 06:44:11;;;;;;;26.43;12.97;;;;;;;8.56;68.92;101339.13;124600;1099;102889;-74
2022/10/15 06:46:42;;;;;;;27.37;14.40;;;;;;;8.68;68.12;101337.22;124605;1099;104249;-75
2022/10/15 06:49:13;;;;;;;28.07;14.30;;;;;;;8.81;68.44;101334.45;124688;1099;104376;-75
2022/10/15 06:51:47;;;;;;;27.17;14.03;;;;;;;8.95;68.41;101336.95;124646;1099;102822;-74
2022/10/15 06:54:18;;;;;;;30.37;14.80;;;;;;;9.08;67.90;101343.77;124603;1099;104248;-74
2022/10/15 06:56:49;;;;;;;29.73;15.00;;;;;;;9.21;68.35;101333.16;124611;1098;104287;-74
2022/10/15 06:59:20;;;;;;;29.77;15.03;;;;;;;9.34;67.77;101338.22;124608;1099;104580;-75
2022/10/15 07:01:52;;;;;;;31.10;15.63;;;;;;;9.47;67.75;101334.57;124586;1098;104214;-74
2022/10/15 07:04:24;;;;;;;36.50;16.33;;;;;;;9.61;67.46;101337.89;124601;1099;103066;-74
2022/10/15 07:06:55;;;;;;;30.37;15.60;;;;;;;9.74;67.53;101336.84;124589;1099;104264;-75
2022/10/15 07:09:28;;;;;;;34.53;16.27;;;;;;;9.86;67.52;101336.56;124639;1099;103254;-74
2022/10/15 07:11:59;;;;;;;27.43;11.83;;;;;;;9.99;67.16;101336.39;124758;1098;104319;-75
2022/10/15 07:14:31;;;;;;;29.80;13.80;;;;;;;10.15;66.87;101343.30;124700;1099;104172;-74
2022/10/15 07:17:02;;;;;;;27.10;11.83;;;;;;;10.30;67.33;101343.20;124704;1099;104714;-74
2022/10/15 07:19:33;;;;;;;25.87;11.90;;;;;;;10.44;66.73;101343.92;124693;1099;102940;-74
2022/10/15 07:22:04;;;;;;;27.13;11.63;;;;;;;10.55;66.59;101344.42;124699;1099;104258;-75
2022/10/15 07:24:35;;;;;;;24.10;11.20;;;;;;;10.66;65.38;101342.32;124609;1099;102847;-74
2022/10/15 07:27:07;;;;;;;24.37;10.83;;;;;;;10.78;65.81;101343.84;124593;1099;104554;-75
2022/10/15 07:29:38;;;;;;;26.03;9.33;;;;;;;10.92;65.91;101351.46;124693;1099;104198;-75
2022/10/15 07:32:09;;;;;;;21.07;8.40;;;;;;;11.04;65.57;101341.55;124769;1099;104070;-76
2022/10/15 07:34:40;;;;;;;16.20;7.90;;;;;;;11.18;65.39;101343.93;124739;1099;104169;-74
2022/10/15 07:37:11;;;;;;;22.47;8.43;;;;;;;11.32;65.05;101337.58;124737;1099;104699;-74
2022/10/15 07:39:42;;;;;;;18.43;7.50;;;;;;;11.46;64.61;101341.73;124776;1099;102973;-74
2022/10/15 07:42:13;;;;;;;18.97;8.20;;;;;;;11.59;64.63;101340.55;124838;1099;101882;-75
2022/10/15 07:44:44;;;;;;;17.40;7.90;;;;;;;11.68;63.75;101337.44;124658;1099;104211;-74
2022/10/15 07:47:17;;;;;;;;;;;;;;;11.79;62.58;101343.17;124776;1099;103670;-74
2022/10/15 07:49:48;;;;;;;18.87;7.90;;;;;;;11.93;63.71;101343.82;124758;1099;102836;-74
2022/10/15 07:52:19;;;;;;;17.53;7.93;;;;;;;12.02;63.00;101333.70;124312;1099;104213;-74
2022/10/15 07:54:50;;;;;;;17.87;7.50;;;;;;;12.12;62.77;101345.51;124793;1099;102841;-75
2022/10/15 07:57:23;;;;;;;19.00;7.67;;;;;;;12.21;62.71;101340.64;124773;1099;102738;-74
2022/10/15 07:59:54;;;;;;;21.50;7.80;;;;;;;12.32;62.44;101339.35;124782;1099;104083;-75
2022/10/15 08:02:25;;;;;;;19.57;7.60;;;;;;;12.44;61.99;101348.62;124748;1098;102864;-76
2022/10/15 08:04:57;;;;;;;20.00;7.17;;;;;;;12.54;62.19;101340.25;124810;1099;102193;-75
2022/10/15 08:07:28;;;;;;;19.90;8.27;;;;;;;12.63;61.22;101337.98;124735;1099;102880;-75
2022/10/15 08:09:59;;;;;;;14.63;6.30;;;;;;;12.71;61.17;101335.67;124769;1099;104309;-75
2022/10/15 08:12:30;;;;;;;15.23;5.93;;;;;;;12.78;60.59;101340.36;124778;1099;102535;-74
2022/10/15 08:15:02;;;;;;;17.23;6.30;;;;;;;12.87;60.14;101337.17;124741;1099;103820;-75
2022/10/15 08:17:33;;;;;;;15.27;6.20;;;;;;;12.94;59.72;101337.48;124841;1099;104337;-74
2022/10/15 08:20:04;;;;;;;15.13;5.70;;;;;;;13.03;59.65;101336.06;124709;1099;104197;-76
2022/10/15 08:22:36;;;;;;;11.63;5.40;;;;;;;13.10;59.55;101339.00;124699;1098;102819;-74
2022/10/15 08:25:08;;;;;;;13.70;5.43;;;;;;;13.21;59.22;101334.11;124807;1099;104251;-74
2022/10/15 08:27:40;;;;;;;14.03;5.10;;;;;;;13.35;58.61;101336.42;124713;1099;104321;-74
2022/10/15 08:30:12;;;;;;;8.80;4.57;;;;;;;13.45;58.60;101338.58;124742;1099;104172;-75
2022/10/15 08:32:43;;;;;;;11.80;4.90;;;;;;;13.52;56.42;101331.78;124828;1099;104804;-74
2022/10/15 08:35:15;;;;;;;9.87;4.67;;;;;;;13.58;57.18;101338.16;124674;1099;104176;-74
2022/10/15 08:37:46;;;;;;;12.57;4.30;;;;;;;13.66;57.36;101334.09;124771;1099;102832;-75
2022/10/15 08:40:18;;;;;;;10.87;4.90;;;;;;;13.77;57.35;101330.92;124811;1099;101909;-74
2022/10/15 08:42:50;;;;;;;14.57;5.40;;;;;;;13.83;57.35;101341.70;124819;1098;104179;-74
2022/10/15 08:45:28;;;;;;;11.73;4.43;;;;;;;13.94;57.25;101336.80;124678;1099;104554;-75
2022/10/15 08:48:04;;;;;;;12.73;4.87;;;;;;;14.00;56.75;101329.11;124720;1099;104223;-75
2022/10/15 08:50:41;;;;;;;10.13;4.30;;;;;;;14.09;55.44;101333.82;124792;1099;104717;-74
2022/10/15 08:53:17;;;;;;;12.50;4.47;;;;;;;14.18;56.03;101336.78;124715;1099;102828;-74
2022/10/15 08:55:55;;;;;;;13.53;4.33;;;;;;;14.27;55.06;101337.06;124747;1099;102561;-74
2022/10/15 08:58:37;;;;;;;14.30;4.23;;;;;;;14.30;55.08;101342.44;124740;1099;104239;-75
2022/10/15 09:01:27;;;;;;;8.53;3.77;;;;;;;14.36;54.30;101347.94;124711;1099;104085;-76
2022/10/15 09:04:08;;;;;;;10.10;3.50;;;;;;;14.35;52.26;101340.88;124796;1099;104172;-75
2022/10/15 09:06:40;;;;;;;7.83;3.10;;;;;;;14.35;52.99;101335.59;124638;1098;104268;-75
2022/10/15 09:09:19;;;;;;;7.30;3.00;;;;;;;14.37;53.79;101335.65;124744;1099;104267;-75
2022/10/15 09:11:59;;;;;;;8.37;3.40;;;;;;;14.39;51.36;101337.48;124651;1099;104221;-75
2022/10/15 09:14:37;;;;;;;10.87;3.70;;;;;;;14.41;50.93;101340.16;124664;1099;104370;-74
2022/10/15 09:17:19;;;;;;;14.60;4.30;;;;;;;14.47;51.65;101334.20;124683;1099;102845;-74
2022/10/15 09:19:53;;;;;;;7.87;3.57;;;;;;;14.56;51.81;101332.75;124757;1099;104239;-75
2022/10/15 09:22:26;;;;;;;5.93;3.30;;;;;;;14.63;51.81;101325.98;124818;1099;104259;-75
2022/10/15 09:24:58;;;;;;;8.08;3.30;;;;;;;14.69;51.34;101326.19;124736;1099;104303;-75
2022/10/15 09:27:35;;;;;;;6.67;3.00;;;;;;;14.68;50.81;101328.77;124638;1099;103718;-74
2022/10/15 09:30:16;;;;;;;6.40;3.23;;;;;;;14.62;50.23;101320.66;124673;1099;104220;-75
2022/10/15 09:32:54;;;;;;;8.27;3.60;;;;;;;14.59;48.96;101320.52;124670;1099;104239;-75
2022/10/15 09:35:30;;;;;;;7.37;3.43;;;;;;;14.55;48.41;101323.06;124717;1099;104163;-75
2022/10/15 09:38:13;;;;;;;6.60;3.37;;;;;;;14.60;49.52;101325.89;124756;1099;104329;-75
2022/10/15 09:40:57;;;;;;;5.67;3.20;;;;;;;14.66;49.75;101320.80;124738;1099;103277;-74
2022/10/15 09:43:34;;;;;;;9.60;3.40;;;;;;;14.71;49.20;101319.19;124797;1098;104235;-74
2022/10/15 09:46:06;;;;;;;7.23;3.60;;;;;;;14.82;48.60;101319.53;124817;1099;102841;-74
2022/10/15 09:48:42;;;;;;;7.63;3.53;;;;;;;14.91;49.33;101310.98;124766;1099;104165;-75
2022/10/15 09:51:25;;;;;;;6.40;3.47;;;;;;;14.97;48.88;101311.17;124802;1099;102323;-75
2022/10/15 09:54:04;;;;;;;10.33;3.33;;;;;;;14.99;48.10;101314.77;124793;1099;102061;-75
2022/10/15 09:56:39;;;;;;;6.73;3.30;;;;;;;15.02;48.23;101314.87;124778;1099;104277;-75
2022/10/15 09:59:18;;;;;;;8.90;3.60;;;;;;;15.08;48.58;101317.70;124709;1099;110780;-75
2022/10/15 10:02:01;;;;;;;9.37;3.40;;;;;;;15.14;48.44;101313.44;124804;1099;102777;-75
2022/10/15 10:04:35;;;;;;;10.90;3.33;;;;;;;15.19;48.13;101311.81;124748;1099;104653;-76
2022/10/15 10:07:08;;;;;;;7.77;3.50;;;;;;;15.16;48.04;101306.44;124807;1099;104264;-75
2022/10/15 10:09:49;;;;;;;10.30;3.23;;;;;;;15.18;46.94;101318.86;124746;1099;103331;-75
2022/10/15 10:12:23;;;;;;;7.70;3.43;;;;;;;15.20;46.96;101313.62;124760;1099;102815;-74
2022/10/15 10:14:58;;;;;;;7.93;3.33;;;;;;;15.21;47.91;101304.85;124786;1098;104217;-75
2022/10/15 10:17:30;;;;;;;8.07;3.40;;;;;;;15.24;47.83;101310.23;124352;1098;104204;-75
2022/10/15 10:20:17;;;;;;;6.40;3.03;;;;;;;15.27;46.88;101311.20;124795;1099;102310;-74
2022/10/15 10:22:51;;;;;;;7.33;3.53;;;;;;;15.30;47.70;101299.80;124720;1099;104281;-75
2022/10/15 10:25:41;;;;;;;6.27;3.50;;;;;;;15.31;47.09;101306.89;124747;1099;101958;-75
2022/10/15 10:28:25;;;;;;;6.80;3.20;;;;;;;15.38;47.07;101298.30;124765;1099;102252;-74
2022/10/15 10:31:03;;;;;;;7.45;3.35;;;;;;;15.40;46.71;101301.87;124734;1099;104248;-74
2022/10/15 10:33:42;;;;;;;6.20;3.37;;;;;;;15.43;47.01;101291.38;124214;1098;104179;-74
2022/10/15 10:36:25;;;;;;;8.67;3.20;;;;;;;15.43;46.32;101299.31;124742;1099;101842;-74
2022/10/15 10:39:05;;;;;;;5.80;3.10;;;;;;;15.46;46.46;101303.81;124821;1099;102822;-75
2022/10/15 10:41:55;;;;;;;8.37;3.10;;;;;;;15.45;45.78;101300.25;124898;1098;104176;-74
2022/10/15 10:44:32;;;;;;;11.33;3.33;;;;;;;15.41;44.80;101303.67;124698;1099;104216;-74
2022/10/15 10:47:13;;;;;;;6.67;3.10;;;;;;;15.41;46.04;101301.03;124768;1099;104044;-75
2022/10/15 10:49:47;;;;;;;7.20;3.20;;;;;;;15.45;46.24;101297.60;124708;1099;104192;-75
2022/10/15 10:52:27;;;;;;;6.47;3.23;;;;;;;15.51;45.59;101293.36;124680;1099;101947;-75
2022/10/15 10:55:05;;;;;;;8.07;3.67;;;;;;;15.57;45.20;101293.53;124853;1098;104309;-75
2022/10/15 10:57:48;;;;;;;8.20;3.50;;;;;;;15.58;45.38;101284.72;124723;1099;104239;-74
2022/10/15 11:00:24;;;;;;;8.53;3.50;;;;;;;15.58;45.18;101290.02;124810;1099;108226;-74
2022/10/15 11:02:57;;;;;;;8.00;3.53;;;;;;;15.57;44.96;101282.95;124742;1099;104131;-75
2022/10/15 11:05:30;;;;;;;9.40;3.33;;;;;;;15.58;44.79;101279.43;124740;1099;104194;-75
2022/10/15 11:08:08;;;;;;;8.50;3.50;;;;;;;15.58;44.87;101279.43;124826;1099;102876;-75
2022/10/15 11:10:47;;;;;;;8.20;3.70;;;;;;;15.51;45.30;101273.09;124270;1099;118984;-75
2022/10/15 11:13:41;;;;;;;9.33;3.83;;;;;;;15.49;44.88;101273.88;124741;1098;104235;-74
2022/10/15 11:16:22;;;;;;;8.55;3.80;;;;;;;15.29;44.61;101271.59;124720;1099;104313;-74
2022/10/15 11:19:04;;;;;;;9.77;3.67;;;;;;;15.14;44.96;101271.14;124720;1099;104188;-74
2022/10/15 11:21:46;;;;;;;9.10;3.60;;;;;;;15.10;44.37;101273.70;124714;1099;104264;-75
2022/10/15 11:24:24;;;;;;;9.17;3.60;;;;;;;15.13;44.63;101264.05;124778;1099;104230;-75
2022/10/15 11:27:11;;;;;;;6.17;3.30;;;;;;;15.07;44.38;101270.96;124772;1098;104273;-74
2022/10/15 11:29:56;;;;;;;6.43;3.50;;;;;;;15.06;45.34;101273.56;124758;1099;104165;-75
2022/10/15 11:32:45;;;;;;;8.77;3.90;;;;;;;15.02;45.17;101272.58;124272;1099;104280;-74
2022/10/15 11:35:41;;;;;;;9.00;3.83;;;;;;;15.04;45.21;101268.23;124727;1099;104268;-75
2022/10/15 11:38:24;;;;;;;8.57;3.83;;;;;;;14.99;44.63;101261.92;124741;1099;104657;-75
2022/10/15 11:41:20;;;;;;;10.27;3.90;;;;;;;14.89;44.88;101262.48;124756;1098;104169;-75